Aérodrome :
LOGIN :

S'inscrire | Disclaimer

   EN    FR    IT 

 










Légende :    VFR   VFR Marginal   IFR   IFR Intensif   IFR Très Intensif
Visi : 
Plafond : 
>= 8 km
>= 3000ft
5 à 8 km
1000 à 3000 ft
1500m à 5 km
500 à 1000 ft
800 à 1500m
200 à 500 ft
< 800m
< 200 ft
Symboles :   Orages  Brouillard  Fortes neiges  Fortes précipitations  Vent > 20 kt
SIGMETs :   Divers  Orages  Givrage  Turbulence  Onde Orograph.  Cendres Volcan.






- Altitude de l'aérodrome : 348 ft
- Code IATA : TSR


LRTR - Timisoara

DERNIER METAR :
  • 070400Z 11005KT CAVOK 15/15 Q1007

METARs EXPIRÉS :
  • 070330Z 10005KT CAVOK 14/14 Q1007
  • 070300Z 10004KT CAVOK 14/14 Q1007
  • 070230Z 11007KT CAVOK 13/13 Q1007
  • 070200Z 10003KT CAVOK 14/14 Q1007
  • 070130Z 09006KT CAVOK 14/14 Q1007

TAF TAF LRTR
Valide du 07 à 00h jusqu'au 08 à 00h UTC


062300Z 0700/0800 VRB04KT CAVOK
TEMPO 0701/0706 SCT045CB
PROB40
TEMPO 0710/0716 14010KT 5000 TSRA SCT040CB



MET'MAP, la Météo Aéronautique d'un coup d'oeil ! - Copyright ORBIFLY Décembre 2007 - Disclaimer

ORBIFLY MET'MAP TEAM :

Programmation & Développement : Alexandra Zaïnal
Sur une idée originale de : Baudouin d'Aumeries
Assistance à la programmation : Marc-Olivier Méhu
Soutien technique & logistique : Manuel Goepfert

Contact : metmap@orbifly.com




SOURCES & CREDITS :

   NOAA